createdAt,value
2022-11-24T00:00:24.469Z,5.6
2022-11-24T00:01:27.386Z,5.6
2022-11-24T00:02:31.089Z,5.6
2022-11-24T00:03:34.730Z,5.6
2022-11-24T00:04:38.638Z,5.6
2022-11-24T00:05:42.094Z,5.6
2022-11-24T00:06:45.267Z,5.5
2022-11-24T00:07:48.356Z,5.5
2022-11-24T00:08:51.160Z,5.5
2022-11-24T00:09:54.688Z,5.5
2022-11-24T00:10:57.009Z,5.5
2022-11-24T00:12:00.224Z,5.5
2022-11-24T00:13:04.563Z,5.5
2022-11-24T00:14:08.016Z,5.5
2022-11-24T00:15:10.894Z,5.5
2022-11-24T00:16:14.373Z,5.5
2022-11-24T00:17:18.047Z,5.5
2022-11-24T00:18:20.652Z,5.4
2022-11-24T00:19:23.529Z,5.4
2022-11-24T00:20:26.255Z,5.4
2022-11-24T00:21:29.259Z,5.4
2022-11-24T00:22:32.448Z,5.4
2022-11-24T00:23:35.706Z,5.4
2022-11-24T00:24:38.859Z,5.4
2022-11-24T00:25:41.108Z,5.3
2022-11-24T00:26:44.627Z,5.4
2022-11-24T00:27:48.116Z,5.4
2022-11-24T00:28:52.392Z,5.4
2022-11-24T00:29:56.200Z,5.4
2022-11-24T00:30:59.401Z,5.4
2022-11-24T00:32:03.114Z,5.4
2022-11-24T00:33:06.370Z,5.4
2022-11-24T00:34:09.537Z,5.4
2022-11-24T00:35:12.710Z,5.3
2022-11-24T00:36:16.444Z,5.3
2022-11-24T00:37:20.212Z,5.3
2022-11-24T00:38:23.258Z,5.3
2022-11-24T00:39:26.194Z,5.3
2022-11-24T00:40:35.518Z,5.3
2022-11-24T00:41:39.080Z,5.3
2022-11-24T00:42:41.986Z,5.3
2022-11-24T00:43:45.179Z,5.3
2022-11-24T00:44:49.502Z,5.3
2022-11-24T00:45:53.038Z,5.3
2022-11-24T00:46:56.695Z,5.3
2022-11-24T00:48:00.112Z,5.3
2022-11-24T00:49:03.855Z,5.3
2022-11-24T00:50:07.019Z,5.2
2022-11-24T00:51:10.346Z,5.3
2022-11-24T00:52:13.689Z,5.2
2022-11-24T00:53:16.290Z,5.3
2022-11-24T00:54:19.817Z,5.2
2022-11-24T00:55:22.531Z,5.2
2022-11-24T00:56:25.451Z,5.2
2022-11-24T00:57:28.528Z,5.2
2022-11-24T00:58:32.084Z,5.2
2022-11-24T00:59:34.506Z,5.2
2022-11-24T01:00:38.480Z,5.2
2022-11-24T01:01:41.721Z,5.2
2022-11-24T01:02:44.932Z,5.2
2022-11-24T01:03:48.301Z,5.2
2022-11-24T01:04:51.296Z,5.3
2022-11-24T01:05:54.436Z,5.2
2022-11-24T01:06:57.627Z,5.2
2022-11-24T01:08:00.780Z,5.2
2022-11-24T01:09:04.169Z,5.2
2022-11-24T01:10:07.619Z,5.2
2022-11-24T01:11:10.809Z,5.2
2022-11-24T01:12:14.371Z,5.2
2022-11-24T01:13:16.604Z,5.2
2022-11-24T01:14:19.620Z,5.2
2022-11-24T01:15:22.530Z,5.2
2022-11-24T01:16:26.765Z,5.2
2022-11-24T01:17:30.486Z,5.2
2022-11-24T01:18:33.283Z,5.3
2022-11-24T01:19:36.083Z,5.2
2022-11-24T01:20:39.211Z,5.2
2022-11-24T01:21:42.359Z,5.2
2022-11-24T01:22:45.529Z,5.2
2022-11-24T01:23:48.303Z,5.2
2022-11-24T01:24:51.186Z,5.3
2022-11-24T01:25:53.868Z,5.2
2022-11-24T01:26:56.723Z,5.2
2022-11-24T01:28:00.081Z,5.2
2022-11-24T01:29:02.639Z,5.2
2022-11-24T01:30:06.127Z,5.2
2022-11-24T01:31:10.070Z,5.2
2022-11-24T01:32:14.351Z,5.2
2022-11-24T01:33:17.663Z,5.2
2022-11-24T01:34:20.567Z,5.2
2022-11-24T01:35:22.823Z,5.2
2022-11-24T01:36:26.353Z,5.2
2022-11-24T01:37:29.429Z,5.2
2022-11-24T01:38:32.948Z,5.2
2022-11-24T01:39:35.751Z,5.2
2022-11-24T01:40:38.267Z,5.2
2022-11-24T01:41:42.062Z,5.2
2022-11-24T01:42:45.221Z,5.2
2022-11-24T01:43:47.912Z,5.2
2022-11-24T01:44:50.531Z,5.2
2022-11-24T01:45:53.640Z,5.2
2022-11-24T01:46:57.073Z,5.2
2022-11-24T01:48:01.718Z,5.2
2022-11-24T01:49:04.691Z,5.2
2022-11-24T01:50:08.139Z,5.2
2022-11-24T01:51:10.386Z,5.2
2022-11-24T01:52:13.725Z,5.2
2022-11-24T01:53:16.248Z,5.1
2022-11-24T01:54:19.398Z,5.1
2022-11-24T01:55:22.191Z,5.1
2022-11-24T01:56:25.207Z,5.1
2022-11-24T01:57:28.056Z,5.1
2022-11-24T01:58:30.938Z,5.1
2022-11-24T01:59:33.845Z,5.1
2022-11-24T02:00:36.997Z,5.2
2022-11-24T02:01:39.926Z,5.1
2022-11-24T02:02:44.059Z,5.2
2022-11-24T02:03:48.366Z,5.1
2022-11-24T02:04:51.948Z,5.1
2022-11-24T02:05:55.062Z,5.1
2022-11-24T02:06:58.336Z,5.1
2022-11-24T02:08:00.852Z,5.1
2022-11-24T02:09:03.974Z,5.1
2022-11-24T02:10:07.018Z,5.1
2022-11-24T02:11:10.483Z,5.1
2022-11-24T02:12:13.986Z,5.1
2022-11-24T02:13:17.166Z,5.1
2022-11-24T02:14:20.345Z,5.1
2022-11-24T02:15:23.415Z,5.1
2022-11-24T02:16:26.441Z,5.1
2022-11-24T02:17:29.737Z,5.1
2022-11-24T02:18:32.170Z,5.1
2022-11-24T02:19:36.442Z,5
2022-11-24T02:20:39.318Z,5.1
2022-11-24T02:21:43.086Z,5
2022-11-24T02:22:45.959Z,5.1
2022-11-24T02:23:50.045Z,5.1
2022-11-24T02:24:52.773Z,5.1
2022-11-24T02:25:55.947Z,5
2022-11-24T02:26:59.207Z,5
2022-11-24T02:28:02.196Z,5
2022-11-24T02:29:05.150Z,5
2022-11-24T02:30:08.120Z,5.1
2022-11-24T02:31:11.529Z,5
2022-11-24T02:32:14.479Z,5.1
2022-11-24T02:33:17.698Z,5.1
2022-11-24T02:34:20.512Z,5.1
2022-11-24T02:35:24.794Z,5.1
2022-11-24T02:36:27.587Z,5.1
2022-11-24T02:37:30.137Z,5.1
2022-11-24T02:38:33.875Z,5
2022-11-24T02:39:37.576Z,5.1
2022-11-24T02:40:40.457Z,5.1
2022-11-24T02:41:43.530Z,5
2022-11-24T02:42:46.253Z,5.1
2022-11-24T02:43:48.787Z,5.1
2022-11-24T02:44:51.866Z,5.1
2022-11-24T02:45:54.355Z,5.1
2022-11-24T02:46:57.341Z,5.1
2022-11-24T02:48:00.316Z,5.1
2022-11-24T02:49:03.424Z,5.1
2022-11-24T02:50:05.681Z,5.1
2022-11-24T02:51:09.902Z,5.1
2022-11-24T02:52:12.760Z,5.1
2022-11-24T02:53:15.451Z,5.1
2022-11-24T02:54:18.306Z,5.1
2022-11-24T02:55:20.904Z,5.1
2022-11-24T02:56:23.508Z,5.1
2022-11-24T02:57:26.661Z,5.1
2022-11-24T02:58:29.837Z,5.1
2022-11-24T02:59:33.107Z,5.1
2022-11-24T03:00:36.013Z,5.1
2022-11-24T03:01:39.702Z,5.1
2022-11-24T03:02:42.977Z,5.1
2022-11-24T03:03:46.011Z,5.1
2022-11-24T03:04:48.931Z,5.1
2022-11-24T03:05:52.159Z,5.1
2022-11-24T03:06:56.456Z,5.2
2022-11-24T03:07:59.335Z,5.2
2022-11-24T03:09:02.216Z,5.1
2022-11-24T03:10:05.361Z,5.2
2022-11-24T03:11:08.512Z,5.2
2022-11-24T03:12:11.469Z,5.1
2022-11-24T03:13:15.235Z,5.2
2022-11-24T03:14:17.947Z,5.1
2022-11-24T03:15:21.389Z,5.1
2022-11-24T03:16:24.825Z,5.2
2022-11-24T03:17:27.712Z,5.1
2022-11-24T03:18:30.526Z,5.2
2022-11-24T03:19:32.965Z,5.1
2022-11-24T03:20:35.967Z,5.1
2022-11-24T03:21:38.899Z,5.1
2022-11-24T03:22:43.126Z,5.1
2022-11-24T03:23:45.575Z,5.1
2022-11-24T03:24:49.095Z,5.1
2022-11-24T03:25:52.579Z,5.1
2022-11-24T03:26:55.646Z,5.1
2022-11-24T03:27:58.543Z,5.1
2022-11-24T03:29:00.807Z,5.1
2022-11-24T03:30:04.044Z,5.1
2022-11-24T03:31:07.237Z,5.1
2022-11-24T03:32:10.412Z,5.1
2022-11-24T03:33:12.991Z,5.1
2022-11-24T03:34:15.723Z,5.1
2022-11-24T03:35:18.878Z,5.1
2022-11-24T03:36:21.824Z,5.1
2022-11-24T03:37:25.078Z,5.1
2022-11-24T03:38:29.336Z,5.1
2022-11-24T03:39:32.763Z,5.1
2022-11-24T03:40:35.998Z,5.1
2022-11-24T03:41:38.487Z,5.1
2022-11-24T03:42:41.486Z,5.1
2022-11-24T03:43:45.334Z,5.1
2022-11-24T03:44:47.571Z,5.1
2022-11-24T03:45:50.939Z,5.1
2022-11-24T03:46:53.833Z,5.1
2022-11-24T03:47:56.729Z,5.1
2022-11-24T03:48:59.979Z,5.1
2022-11-24T03:50:03.235Z,5.1
2022-11-24T03:51:06.501Z,5.1
2022-11-24T03:52:09.808Z,5.1
2022-11-24T03:53:13.003Z,5.1
2022-11-24T03:54:17.019Z,5.1
2022-11-24T03:55:20.368Z,5.1
2022-11-24T03:56:23.362Z,5.1
2022-11-24T03:57:26.361Z,5.1
2022-11-24T03:58:29.637Z,5.1
2022-11-24T03:59:32.377Z,5.1
2022-11-24T04:00:35.692Z,5.1
2022-11-24T04:01:38.503Z,5.1
2022-11-24T04:02:41.956Z,5.1
2022-11-24T04:03:45.073Z,5.2
2022-11-24T04:04:50.800Z,5.1
2022-11-24T04:05:53.755Z,5.2
2022-11-24T04:06:57.105Z,5.1
2022-11-24T04:08:00.570Z,5.1
2022-11-24T04:09:03.305Z,5.1
2022-11-24T04:10:07.530Z,5.1
2022-11-24T04:11:10.186Z,5.1
2022-11-24T04:12:12.992Z,5.1
2022-11-24T04:13:16.554Z,5.1
2022-11-24T04:14:19.918Z,5.1
2022-11-24T04:15:22.835Z,5.1
2022-11-24T04:16:25.777Z,5.1
2022-11-24T04:17:28.975Z,5.1
2022-11-24T04:18:31.689Z,5.1
2022-11-24T04:19:35.150Z,5.1
2022-11-24T04:20:38.550Z,5.1
2022-11-24T04:21:41.501Z,5.1
2022-11-24T04:22:44.784Z,5.1
2022-11-24T04:23:47.574Z,5.1
2022-11-24T04:24:50.579Z,5.1
2022-11-24T04:25:54.482Z,5.1
2022-11-24T04:26:57.608Z,5
2022-11-24T04:28:00.215Z,5
2022-11-24T04:29:03.444Z,5
2022-11-24T04:30:06.537Z,5
2022-11-24T04:31:09.505Z,5
2022-11-24T04:32:12.153Z,5
2022-11-24T04:33:15.050Z,5
2022-11-24T04:34:18.511Z,5
2022-11-24T04:35:21.534Z,5
2022-11-24T04:36:24.427Z,5
2022-11-24T04:37:27.715Z,5
2022-11-24T04:39:29.284Z,5
2022-11-24T04:40:34.114Z,5
2022-11-24T04:41:38.349Z,5
2022-11-24T04:42:40.871Z,5
2022-11-24T04:43:43.508Z,5
2022-11-24T04:44:46.585Z,5
2022-11-24T04:45:49.119Z,5
2022-11-24T04:46:52.297Z,5
2022-11-24T04:47:55.430Z,5
2022-11-24T04:48:58.658Z,5
2022-11-24T04:50:01.478Z,5
2022-11-24T04:51:05.163Z,5
2022-11-24T04:52:08.051Z,5
2022-11-24T04:53:11.126Z,5
2022-11-24T04:54:14.212Z,5
2022-11-24T04:55:17.503Z,5
2022-11-24T04:56:20.232Z,5
2022-11-24T04:57:24.534Z,5
2022-11-24T04:58:27.317Z,5
2022-11-24T04:59:30.282Z,5
2022-11-24T05:00:32.589Z,5
2022-11-24T05:01:36.220Z,5
2022-11-24T05:02:39.242Z,5
2022-11-24T05:03:42.423Z,5
2022-11-24T05:04:44.646Z,5
2022-11-24T05:05:47.699Z,5
2022-11-24T05:06:50.205Z,5
2022-11-24T05:07:53.265Z,5
2022-11-24T05:08:56.724Z,5
2022-11-24T05:10:00.260Z,5
2022-11-24T05:11:03.756Z,5
2022-11-24T05:12:07.246Z,5
2022-11-24T05:13:11.336Z,5
2022-11-24T05:14:14.671Z,5
2022-11-24T05:15:18.075Z,5
2022-11-24T05:16:21.079Z,5
2022-11-24T05:17:25.001Z,5
2022-11-24T05:18:27.484Z,5
2022-11-24T05:19:33.214Z,5
2022-11-24T05:20:36.704Z,5
2022-11-24T05:21:39.416Z,5
2022-11-24T05:22:41.917Z,5
2022-11-24T05:23:45.246Z,5
2022-11-24T05:24:48.294Z,5
2022-11-24T05:25:51.434Z,5
2022-11-24T05:26:54.588Z,5
2022-11-24T05:27:58.091Z,5.1
2022-11-24T05:29:01.905Z,5.1
2022-11-24T05:30:04.943Z,5.1
2022-11-24T05:31:07.853Z,5.1
2022-11-24T05:32:10.772Z,5.1
2022-11-24T05:33:13.187Z,5.1
2022-11-24T05:34:16.237Z,5.1
2022-11-24T05:35:19.033Z,5.1
2022-11-24T05:36:21.523Z,5.1
2022-11-24T05:37:24.095Z,5.1
2022-11-24T05:38:27.219Z,5.1
2022-11-24T05:39:29.876Z,5
2022-11-24T05:40:31.736Z,5
2022-11-24T05:41:35.444Z,5
2022-11-24T05:42:48.397Z,5
2022-11-24T05:43:51.489Z,5
2022-11-24T05:44:55.661Z,5.1
2022-11-24T05:45:58.829Z,5.1
2022-11-24T05:47:02.111Z,5.1
2022-11-24T05:48:05.735Z,5.1
2022-11-24T05:49:08.433Z,5.1
2022-11-24T05:50:11.200Z,5.1
2022-11-24T05:51:13.964Z,5.1
2022-11-24T05:52:17.022Z,5.2
2022-11-24T05:53:19.999Z,5.2
2022-11-24T05:54:23.044Z,5.2
2022-11-24T05:55:26.155Z,5.2
2022-11-24T05:56:29.587Z,5.2
2022-11-24T05:57:32.360Z,5.2
2022-11-24T05:58:35.508Z,5.2
2022-11-24T05:59:38.110Z,5.2
2022-11-24T06:00:42.195Z,5.2
2022-11-24T06:01:45.413Z,5.2
2022-11-24T06:02:49.293Z,5.2
2022-11-24T06:03:52.663Z,5.2
2022-11-24T06:04:55.711Z,5.2
2022-11-24T06:05:58.408Z,5.2
2022-11-24T06:07:01.078Z,5.2
2022-11-24T06:08:04.480Z,5.2
2022-11-24T06:09:07.317Z,5.2
2022-11-24T06:10:09.842Z,5.2
2022-11-24T06:11:12.956Z,5.3
2022-11-24T06:12:15.537Z,5.2
2022-11-24T06:13:18.902Z,5.3
2022-11-24T06:14:22.225Z,5.2
2022-11-24T06:15:25.012Z,5.3
2022-11-24T06:16:29.318Z,5.2
2022-11-24T06:17:32.505Z,5.3
2022-11-24T06:18:35.458Z,5.3
2022-11-24T06:19:43.021Z,5.2
2022-11-24T06:21:12.269Z,5.2
2022-11-24T06:22:15.660Z,5.3
2022-11-24T06:23:18.808Z,5.2
2022-11-24T06:24:21.519Z,5.2
2022-11-24T06:25:23.743Z,5.3
2022-11-24T06:26:26.507Z,5.2
2022-11-24T06:27:29.623Z,5.3
2022-11-24T06:28:33.258Z,5.3
2022-11-24T06:29:36.357Z,5.3
2022-11-24T06:30:39.703Z,5.3
2022-11-24T06:31:44.235Z,5.3
2022-11-24T06:32:50.797Z,5.3
2022-11-24T06:33:53.225Z,5.3
2022-11-24T06:34:55.551Z,5.4
2022-11-24T06:35:58.804Z,5.3
2022-11-24T06:37:01.855Z,5.3
2022-11-24T06:38:04.544Z,5.3
2022-11-24T06:39:07.155Z,5.3
2022-11-24T06:40:09.860Z,5.3
2022-11-24T06:41:13.222Z,5.4
2022-11-24T06:42:15.516Z,5.3
2022-11-24T06:43:18.556Z,5.3
2022-11-24T06:44:21.250Z,5.4
2022-11-24T06:45:25.036Z,5.4
2022-11-24T06:46:28.455Z,5.4
2022-11-24T06:47:32.252Z,5.4
2022-11-24T06:48:34.967Z,5.4
2022-11-24T06:49:37.187Z,5.4
2022-11-24T06:50:40.157Z,5.4
2022-11-24T06:51:42.657Z,5.5
2022-11-24T06:52:45.432Z,5.4
2022-11-24T06:53:48.286Z,5.4
2022-11-24T06:54:51.605Z,5.5
2022-11-24T06:55:54.374Z,5.5
2022-11-24T06:56:57.573Z,5.4
2022-11-24T06:58:00.420Z,5.4
2022-11-24T06:59:03.831Z,5.4
2022-11-24T07:00:06.811Z,5.4
2022-11-24T07:01:10.223Z,5.5
2022-11-24T07:02:13.368Z,5.4
2022-11-24T07:03:17.608Z,5.5
2022-11-24T07:04:20.348Z,5.5
2022-11-24T07:05:23.333Z,5.4
2022-11-24T07:06:25.760Z,5.4
2022-11-24T07:07:28.702Z,5.5
2022-11-24T07:08:31.753Z,5.5
2022-11-24T07:09:34.876Z,5.5
2022-11-24T07:10:38.204Z,5.5
2022-11-24T07:11:40.972Z,5.5
2022-11-24T07:12:43.951Z,5.5
2022-11-24T07:13:46.995Z,5.5
2022-11-24T07:14:49.421Z,5.5
2022-11-24T07:15:51.922Z,5.5
2022-11-24T07:16:54.912Z,5.5
2022-11-24T07:17:57.666Z,5.5
2022-11-24T07:19:01.841Z,5.5
2022-11-24T07:20:05.837Z,5.5
2022-11-24T07:21:08.964Z,5.5
2022-11-24T07:22:12.095Z,5.5
2022-11-24T07:23:15.162Z,5.5
2022-11-24T07:24:17.924Z,5.5
2022-11-24T07:25:21.283Z,5.5
2022-11-24T07:26:23.517Z,5.5
2022-11-24T07:27:26.781Z,5.5
2022-11-24T07:28:29.573Z,5.5
2022-11-24T07:29:32.713Z,5.5
2022-11-24T07:30:35.557Z,5.6
2022-11-24T07:31:38.874Z,5.6
2022-11-24T07:32:42.812Z,5.6
2022-11-24T07:33:46.340Z,5.6
2022-11-24T07:34:50.099Z,5.6
2022-11-24T07:35:52.944Z,5.6
2022-11-24T07:36:55.785Z,5.6
2022-11-24T07:37:58.983Z,5.6
2022-11-24T07:39:02.683Z,5.6
2022-11-24T07:40:05.378Z,5.6
2022-11-24T07:41:08.244Z,5.6
2022-11-24T07:42:11.011Z,5.6
2022-11-24T07:43:20.922Z,5.6
2022-11-24T07:44:24.847Z,5.7
2022-11-24T07:45:28.473Z,5.6
2022-11-24T07:46:31.841Z,5.7
2022-11-24T07:47:34.604Z,5.7
2022-11-24T07:48:37.418Z,5.7
2022-11-24T07:49:41.161Z,5.7
2022-11-24T07:50:45.043Z,5.7
2022-11-24T07:51:58.236Z,5.7
2022-11-24T07:53:01.092Z,5.7
2022-11-24T07:54:04.248Z,5.7
2022-11-24T07:55:07.304Z,5.7
2022-11-24T07:56:10.827Z,5.7
2022-11-24T07:57:13.604Z,5.7
2022-11-24T07:58:16.581Z,5.8
2022-11-24T07:59:19.556Z,5.8
2022-11-24T08:00:22.903Z,5.8
2022-11-24T08:01:26.499Z,5.8
2022-11-24T08:02:29.416Z,5.8
2022-11-24T08:03:32.771Z,5.8
2022-11-24T08:04:36.644Z,5.8
2022-11-24T08:06:28.954Z,5.9
2022-11-24T08:07:50.746Z,5.9
2022-11-24T08:08:54.131Z,5.8
2022-11-24T08:09:57.841Z,5.9
2022-11-24T08:11:00.479Z,5.9
2022-11-24T08:12:02.969Z,5.9
2022-11-24T08:13:06.381Z,5.9
2022-11-24T08:14:09.177Z,5.9
2022-11-24T08:15:12.588Z,5.9
2022-11-24T08:16:16.007Z,5.9
2022-11-24T08:17:19.167Z,5.9
2022-11-24T08:18:22.016Z,5.9
2022-11-24T08:19:25.698Z,5.9
2022-11-24T08:20:28.851Z,5.9
2022-11-24T08:21:31.851Z,5.9
2022-11-24T08:22:35.284Z,6
2022-11-24T08:23:39.143Z,5.9
2022-11-24T08:24:42.394Z,6
2022-11-24T08:25:44.610Z,6
2022-11-24T08:26:47.938Z,6
2022-11-24T08:27:50.985Z,6
2022-11-24T08:28:54.419Z,6
2022-11-24T08:29:58.058Z,6
2022-11-24T08:31:01.179Z,6.1
2022-11-24T08:32:04.403Z,6.1
2022-11-24T08:33:07.309Z,6.1
2022-11-24T08:34:09.729Z,6.1
2022-11-24T08:35:15.875Z,6.1
2022-11-24T08:36:18.888Z,6.1
2022-11-24T08:37:21.974Z,6.1
2022-11-24T08:38:25.049Z,6.1
2022-11-24T08:39:29.261Z,6.1
2022-11-24T08:40:32.667Z,6.1
2022-11-24T08:41:36.366Z,6.1
2022-11-24T08:42:39.709Z,6.1
2022-11-24T08:43:42.694Z,6.1
2022-11-24T08:44:45.942Z,6.1
2022-11-24T08:45:49.523Z,6.1
2022-11-24T08:46:52.775Z,6.2
2022-11-24T08:47:55.634Z,6.2
2022-11-24T08:48:59.048Z,6.1
2022-11-24T08:50:02.496Z,6.2
2022-11-24T08:51:06.181Z,6.1
2022-11-24T08:52:09.238Z,6.2
2022-11-24T08:53:12.186Z,6.2
2022-11-24T08:54:15.042Z,6.2
2022-11-24T08:55:19.248Z,6.2
2022-11-24T08:56:22.374Z,6.1
2022-11-24T08:57:26.156Z,6.2
2022-11-24T08:58:28.928Z,6.1
2022-11-24T08:59:31.402Z,6.2
2022-11-24T09:00:34.168Z,6.1
2022-11-24T09:01:37.622Z,6.1
2022-11-24T09:02:40.638Z,6.2
2022-11-24T09:03:51.709Z,6.2
2022-11-24T09:04:55.602Z,6.2
2022-11-24T09:05:58.955Z,6.2
2022-11-24T09:07:01.818Z,6.2
2022-11-24T09:08:05.241Z,6.2
2022-11-24T09:09:08.980Z,6.2
2022-11-24T09:10:12.026Z,6.2
2022-11-24T09:11:16.073Z,6.3
2022-11-24T09:12:19.154Z,6.3
2022-11-24T09:13:22.224Z,6.3
2022-11-24T09:14:26.218Z,6.3
2022-11-24T09:15:28.994Z,6.3
2022-11-24T09:16:32.778Z,6.3
2022-11-24T09:17:36.071Z,6.3
2022-11-24T09:18:39.395Z,6.3
2022-11-24T09:19:43.110Z,6.3
2022-11-24T09:20:46.161Z,6.3
2022-11-24T09:21:49.140Z,6.3
2022-11-24T09:22:52.552Z,6.4
2022-11-24T09:23:55.920Z,6.4
2022-11-24T09:24:59.074Z,6.4
2022-11-24T09:26:02.402Z,6.4
2022-11-24T09:27:06.634Z,6.4
2022-11-24T09:28:09.942Z,6.4
2022-11-24T09:29:12.635Z,6.5
2022-11-24T09:30:15.609Z,6.5
2022-11-24T09:31:19.309Z,6.5
2022-11-24T09:32:22.851Z,6.5
2022-11-24T09:33:26.652Z,6.5
2022-11-24T09:34:29.623Z,6.5
2022-11-24T09:35:32.679Z,6.5
2022-11-24T09:36:35.458Z,6.5
2022-11-24T09:37:39.206Z,6.5
2022-11-24T09:38:42.577Z,6.5
2022-11-24T09:39:45.584Z,6.6
2022-11-24T09:40:48.350Z,6.5
2022-11-24T09:41:52.208Z,6.6
2022-11-24T09:42:56.372Z,6.6
2022-11-24T09:43:59.561Z,6.7
2022-11-24T09:45:02.350Z,6.7
2022-11-24T09:46:07.535Z,6.7
2022-11-24T09:47:11.667Z,6.8
2022-11-24T09:48:14.703Z,6.8
2022-11-24T09:49:17.868Z,6.8
2022-11-24T09:50:20.894Z,6.8
2022-11-24T09:51:24.153Z,6.8
2022-11-24T09:52:27.110Z,6.8
2022-11-24T09:53:29.875Z,6.9
2022-11-24T09:54:33.282Z,6.9
2022-11-24T09:55:36.290Z,6.9
2022-11-24T09:56:39.455Z,6.9
2022-11-24T09:57:42.594Z,6.9
2022-11-24T09:58:46.405Z,6.9
2022-11-24T09:59:48.827Z,6.9
2022-11-24T10:00:51.040Z,6.9
2022-11-24T10:01:53.889Z,6.9
2022-11-24T10:02:57.614Z,6.9
2022-11-24T10:04:07.422Z,6.9
2022-11-24T10:05:10.133Z,6.9
2022-11-24T10:06:13.376Z,6.9
2022-11-24T10:07:16.991Z,7
2022-11-24T10:08:20.294Z,7
2022-11-24T10:09:22.726Z,7
2022-11-24T10:10:26.580Z,7
2022-11-24T10:11:29.695Z,7
2022-11-24T10:12:32.706Z,7
2022-11-24T10:13:35.634Z,7
2022-11-24T10:14:39.450Z,7
2022-11-24T10:15:42.940Z,7
2022-11-24T10:16:46.644Z,7
2022-11-24T10:17:49.781Z,7.1
2022-11-24T10:18:53.392Z,7.1
2022-11-24T10:19:57.060Z,7.1
2022-11-24T10:21:00.178Z,7.1
2022-11-24T10:22:03.611Z,7.2
2022-11-24T10:23:06.666Z,7.2
2022-11-24T10:24:09.084Z,7.2
2022-11-24T10:25:11.927Z,7.2
2022-11-24T10:26:15.174Z,7.2
2022-11-24T10:27:18.625Z,7.2
2022-11-24T10:28:22.348Z,7.2
2022-11-24T10:29:26.023Z,7.2
2022-11-24T10:30:30.185Z,7.3
2022-11-24T10:31:34.538Z,7.3
2022-11-24T10:32:38.344Z,7.3
2022-11-24T10:33:41.500Z,7.3
2022-11-24T10:34:44.663Z,7.3
2022-11-24T10:35:47.077Z,7.4
2022-11-24T10:36:50.732Z,7.4
2022-11-24T10:37:53.860Z,7.4
2022-11-24T10:38:56.929Z,7.4
2022-11-24T10:40:01.372Z,7.4
2022-11-24T10:41:04.587Z,7.4
2022-11-24T10:42:08.285Z,7.4
2022-11-24T10:43:11.110Z,7.4
2022-11-24T10:44:13.844Z,7.5
2022-11-24T10:45:17.091Z,7.5
2022-11-24T10:46:21.427Z,7.5
2022-11-24T10:47:25.227Z,7.5
2022-11-24T10:48:28.318Z,7.5
2022-11-24T10:49:31.678Z,7.5
2022-11-24T10:50:36.878Z,7.6
2022-11-24T10:51:40.086Z,7.6
2022-11-24T10:52:43.512Z,7.6
2022-11-24T10:53:46.298Z,7.6
2022-11-24T10:54:49.629Z,7.7
2022-11-24T10:55:53.225Z,7.7
2022-11-24T10:56:57.284Z,7.7
2022-11-24T10:58:00.557Z,7.7
2022-11-24T10:59:03.730Z,7.7
2022-11-24T11:00:06.638Z,7.7
2022-11-24T11:01:10.426Z,7.8
2022-11-24T11:02:15.281Z,7.8
2022-11-24T11:03:18.734Z,7.8
2022-11-24T11:04:22.396Z,7.8
2022-11-24T11:05:25.090Z,7.8
2022-11-24T11:06:28.710Z,7.8
2022-11-24T11:07:31.985Z,7.8
2022-11-24T11:08:34.721Z,7.9
2022-11-24T11:09:38.301Z,7.9
2022-11-24T11:10:41.335Z,7.9
2022-11-24T11:11:45.053Z,7.9
2022-11-24T11:12:48.490Z,7.9
2022-11-24T11:13:51.470Z,8
2022-11-24T11:14:54.980Z,8
2022-11-24T11:15:58.780Z,8
2022-11-24T11:17:02.452Z,8
2022-11-24T11:18:06.897Z,8
2022-11-24T11:19:50.479Z,8.1
2022-11-24T11:21:06.131Z,8.1
2022-11-24T11:22:09.210Z,8.1
2022-11-24T11:23:11.982Z,8.2
2022-11-24T11:24:15.966Z,8.2
2022-11-24T11:25:18.642Z,8.2
2022-11-24T11:26:22.345Z,8.2
2022-11-24T11:27:25.760Z,8.2
2022-11-24T11:28:28.921Z,8.2
2022-11-24T11:35:32.288Z,8.3
2022-11-24T11:36:35.904Z,8.3
2022-11-24T11:37:39.514Z,8.3
2022-11-24T11:38:42.395Z,8.4
2022-11-24T11:39:49.879Z,8.4
2022-11-24T11:40:52.932Z,8.4
2022-11-24T11:41:55.376Z,8.4
2022-11-24T11:43:05.239Z,8.4
2022-11-24T11:44:08.035Z,8.4
2022-11-24T11:45:10.925Z,8.4
2022-11-24T11:46:15.538Z,8.4
2022-11-24T11:47:19.334Z,8.4
2022-11-24T11:48:22.555Z,8.4
2022-11-24T11:49:25.809Z,8.5
2022-11-24T11:50:30.062Z,8.5
2022-11-24T11:51:34.409Z,8.5
2022-11-24T11:52:37.926Z,8.5
2022-11-24T11:53:40.717Z,8.5
2022-11-24T11:54:43.418Z,8.5
2022-11-24T11:55:51.002Z,8.5
2022-11-24T11:56:54.129Z,8.5
2022-11-24T11:57:56.899Z,8.5
2022-11-24T11:59:00.330Z,8.6
2022-11-24T12:00:03.659Z,8.6
2022-11-24T12:01:07.039Z,8.6
2022-11-24T12:02:10.571Z,8.6
2022-11-24T12:03:14.396Z,8.6
2022-11-24T12:04:18.457Z,8.6
2022-11-24T12:05:21.918Z,8.6
2022-11-24T12:06:25.598Z,8.6
2022-11-24T12:07:29.645Z,8.6
2022-11-24T12:09:21.148Z,8.6
2022-11-24T12:10:24.416Z,8.5
2022-11-24T12:11:27.401Z,8.6
2022-11-24T12:12:30.785Z,8.6
2022-11-24T12:13:34.190Z,8.6
2022-11-24T12:14:40.426Z,8.6
2022-11-24T12:15:43.863Z,8.6
2022-11-24T12:16:47.689Z,8.6
2022-11-24T12:17:50.108Z,8.6
2022-11-24T12:18:59.749Z,8.6
2022-11-24T12:20:02.827Z,8.6
2022-11-24T12:21:05.543Z,8.6
2022-11-24T12:22:09.239Z,8.7
2022-11-24T12:23:12.955Z,8.7
2022-11-24T12:24:15.928Z,8.7
2022-11-24T12:25:18.698Z,8.6
2022-11-24T12:26:21.853Z,8.7
2022-11-24T12:27:24.852Z,8.7
2022-11-24T12:28:28.255Z,8.7
2022-11-24T12:29:31.683Z,8.7
2022-11-24T12:30:36.340Z,8.7
2022-11-24T12:31:39.610Z,8.7
2022-11-24T12:32:43.332Z,8.7
2022-11-24T12:34:01.076Z,8.7
2022-11-24T12:35:04.387Z,8.7
2022-11-24T12:36:07.820Z,8.7
2022-11-24T12:37:11.518Z,8.7
2022-11-24T12:38:15.138Z,8.7
2022-11-24T12:39:18.033Z,8.8
2022-11-24T12:40:20.807Z,8.8
2022-11-24T12:41:54.596Z,8.8
2022-11-24T12:42:57.952Z,8.8
2022-11-24T12:44:00.659Z,8.8
2022-11-24T12:45:04.272Z,8.8
2022-11-24T12:46:17.896Z,8.8
2022-11-24T12:47:21.246Z,8.8
2022-11-24T12:48:24.621Z,8.8
2022-11-24T12:49:27.987Z,8.8
2022-11-24T12:50:31.114Z,8.8
2022-11-24T12:51:34.841Z,8.8
2022-11-24T12:52:38.295Z,8.8
2022-11-24T12:53:41.735Z,8.8
2022-11-24T12:54:44.545Z,8.8
2022-11-24T12:55:47.038Z,8.8
2022-11-24T12:56:50.314Z,8.8
2022-11-24T12:57:54.093Z,8.8
2022-11-24T12:58:56.937Z,8.8
2022-11-24T12:59:59.927Z,8.8
2022-11-24T13:01:03.346Z,8.8
2022-11-24T13:02:06.879Z,8.8
2022-11-24T13:03:10.780Z,8.8
2022-11-24T13:04:14.121Z,8.8
2022-11-24T13:05:18.126Z,8.8
2022-11-24T13:06:21.727Z,8.8
2022-11-24T13:07:25.057Z,8.8
2022-11-24T13:08:28.906Z,8.8
2022-11-24T13:09:32.624Z,8.8
2022-11-24T13:11:06.049Z,8.8
2022-11-24T13:12:09.403Z,8.9
2022-11-24T13:13:12.218Z,8.9
2022-11-24T13:14:15.945Z,8.9
2022-11-24T13:15:47.190Z,8.9
2022-11-24T13:25:16.862Z,9
2022-11-24T13:26:20.576Z,9.1
2022-11-24T13:27:24.667Z,9.1
2022-11-24T13:29:24.162Z,9.1
2022-11-24T13:30:28.505Z,9.1
2022-11-24T13:31:31.819Z,9.2
2022-11-24T13:32:34.986Z,9.2
2022-11-24T13:33:38.036Z,9.2
2022-11-24T13:34:41.068Z,9.2
2022-11-24T13:35:44.555Z,9.2
2022-11-24T13:36:47.903Z,9.2
2022-11-24T13:37:50.702Z,9.3
2022-11-24T13:38:54.222Z,9.3
2022-11-24T13:39:57.291Z,9.3
2022-11-24T13:41:29.434Z,9.3
2022-11-24T13:42:44.996Z,9.3
2022-11-24T13:43:47.511Z,9.3
2022-11-24T13:44:50.850Z,9.3
2022-11-24T13:45:54.287Z,9.3
2022-11-24T13:47:07.384Z,9.3
2022-11-24T13:48:10.677Z,9.3
2022-11-24T13:49:13.692Z,9.3
2022-11-24T13:50:21.985Z,9.3
2022-11-24T13:51:25.064Z,9.3
2022-11-24T13:52:28.498Z,9.3
2022-11-24T13:53:31.277Z,9.3
2022-11-24T13:54:35.239Z,9.3
2022-11-24T13:55:38.887Z,9.3
2022-11-24T13:56:42.582Z,9.3
2022-11-24T13:57:45.856Z,9.3
2022-11-24T13:58:49.479Z,9.3
2022-11-24T13:59:52.533Z,9.3
2022-11-24T14:00:59.383Z,9.3
2022-11-24T14:02:02.568Z,9.3
2022-11-24T14:03:06.049Z,9.3
2022-11-24T14:04:39.418Z,9.3
2022-11-24T14:05:42.774Z,9.3
2022-11-24T14:06:45.753Z,9.3
2022-11-24T14:07:48.948Z,9.3
2022-11-24T14:08:52.468Z,9.3
2022-11-24T14:09:55.810Z,9.3
2022-11-24T14:10:59.221Z,9.3
2022-11-24T14:12:03.066Z,9.3
2022-11-24T14:13:06.554Z,9.3
2022-11-24T14:14:09.721Z,9.3
2022-11-24T14:15:19.400Z,9.3
2022-11-24T14:16:22.836Z,9.3
2022-11-24T14:17:26.396Z,9.2
2022-11-24T14:18:29.475Z,9.2
2022-11-24T14:19:33.345Z,9.2
2022-11-24T14:20:36.318Z,9.2
2022-11-24T14:21:39.088Z,9.2
2022-11-24T14:22:41.627Z,9.2
2022-11-24T14:23:44.610Z,9.2
2022-11-24T14:24:48.735Z,9.2
2022-11-24T14:25:51.991Z,9.2
2022-11-24T14:26:55.041Z,9.2
2022-11-24T14:27:59.036Z,9.3
2022-11-24T14:29:03.085Z,9.3
2022-11-24T14:30:06.064Z,9.3
2022-11-24T14:31:09.313Z,9.3
2022-11-24T14:32:11.888Z,9.3
2022-11-24T14:33:14.466Z,9.3
2022-11-24T14:34:17.254Z,9.3
2022-11-24T14:35:20.803Z,9.3
2022-11-24T14:36:24.170Z,9.3
2022-11-24T14:37:27.181Z,9.3
2022-11-24T14:38:30.617Z,9.3
2022-11-24T14:39:33.593Z,9.3
2022-11-24T14:40:36.861Z,9.3
2022-11-24T14:41:39.849Z,9.3
2022-11-24T14:42:42.101Z,9.3
2022-11-24T14:43:46.169Z,9.3
2022-11-24T14:44:50.311Z,9.3
2022-11-24T14:45:53.340Z,9.3
2022-11-24T14:46:56.265Z,9.3
2022-11-24T14:47:59.523Z,9.3
2022-11-24T14:49:02.495Z,9.3
2022-11-24T14:50:06.178Z,9.3
2022-11-24T14:51:09.618Z,9.3
2022-11-24T14:52:12.987Z,9.3
2022-11-24T14:53:15.700Z,9.3
2022-11-24T14:54:21.407Z,9.3
2022-11-24T14:55:24.261Z,9.3
2022-11-24T14:56:27.687Z,9.3
2022-11-24T14:57:30.986Z,9.3
2022-11-24T14:58:43.031Z,9.3
2022-11-24T14:59:46.569Z,9.2
2022-11-24T15:00:50.252Z,9.2
2022-11-24T15:01:54.388Z,9.2